Omaha, NE (68131)

12:08 PM CDT on October 02, 2014 (GMT -0500)
Midtown (42nd and Center) | Change Station
CLOSE
Current Station
Personal Weather Station
Location: Omaha, NE
Elevation: 1220 ft
Nearby Weather Stations

Elev 1220 ft 41.24 °N, 95.97 °W | Updated 5 seconds ago

Overcast
Overcast
57.8 °F
Feels Like 57.8 °F
N
6.0
Wind Variable Wind from South
Gusts 13.0 mph

Today
High -- | Low -- °F
--% Chance of Precip.
Yesterday
High -- | Low -- °F
Precip. -- in
7:21 AM 7:03 PM
First Quarter, 60% visible
Pressure 29.81 in
Visibility 10.0 miles
Clouds Mostly Cloudy 1000 ft
Mostly Cloudy 3200 ft
Overcast 13000 ft
Dew Point 56 °F
Humidity 92%
Rainfall 0.03 in
Snow Depth Not available.
UV 1.8 out of 12
Pollen .50 out of 12
Ozone Good
PM2.5 Moderate
Flu Activity Not available.
SPECI KOMA 021645Z 35009KT 10SM BKN010 BKN032 OVC130 15/13 A2981 RMK AO2 RAE1555B16E26 CIG 008V014 PRESFR P0000 T01500128

More Conditions Fewer Conditions

Pressure 29.81 in
Visibility 10.0 miles
Clouds Mostly Cloudy 1000 ft
Mostly Cloudy 3200 ft
Overcast 13000 ft
Dew Point 56 °F
Humidity 92%
Rainfall 0.03 in
Snow Depth Not available.
UV 1.8 out of 12
Pollen .50 out of 12
Ozone Good
PM2.5 Moderate
Flu Activity Not available.
SPECI KOMA 021645Z 35009KT 10SM BKN010 BKN032 OVC130 15/13 A2981 RMK AO2 RAE1555B16E26 CIG 008V014 PRESFR P0000 T01500128

More Conditions Fewer Conditions

10-Day Weather Forecast

Almanac

Astronomy

Oct. 02, 2014 Rise Set
Actual Time 7:21 AM CDT 7:03 PM CDT
Civil Twilight 6:54 AM CDT 7:31 PM CDT
Nautical Twilight 6:22 AM CDT 8:03 PM CDT
Astronomical Twilight 5:49 AM CDT 8:35 PM CDT
Moon 3:14 PM CDT 12:36 AM CDT
Length of Visible Light 12h 37m
Length of Day
11h 42m
Tomorrow will be 2m 44s shorter.
First Quarter, 60% of the Moon is Illuminated
Today
First Quarter
Oct 8
Full
Oct 15
Last Quarter
Oct 23
New
Oct 30
First Quarter

Today's Extremes

State Highs State Lows

Community

WunderPhotos

Upload Photos

1,758,298 photos uploaded!

Nearby

Air Quality

  Air Quality AQ Index Pollutant
Yesterday Good
PM2.5
Yesterday Good
OZONE
Current Moderate
PM2.5
Current Good
OZONE
Thursday Moderate
PM2.5
Thursday Good
OZONE
Thursday Good
CO
Friday Moderate
PM2.5
Friday Good
OZONE
Friday Good
CO

Snow Depth

Station Depth Elevation
No new snow has been reported.

Earthquake Activity

City Distance Mag. Time & Date
No recent earthquake activity has been reported nearby.
Minimum magnitude displayed is 2.5.

Coastal Water Temperatures

Place Temperature
No Stations Reporting

Nearby Weather Stations